Dedham, Iowa
Current Conditions -  °F | °C
As of 6:55 PM on Saturday 22 Nov 2014 (Local Time) from KCIN Reporting Station
Overcast Overcast  
Wind Chill: 52°   Ceiling: 800
Heat Index: 52°   Visibility: 10mi
Dew Point: 50°   Wind: 18mph
Humidity: 94%   Direction: 190°S
Pressure: 29.6"   Gusts: NA
Location:  41.91°N, 94.82°W
Report Text: KCIN 230055Z AUTO 19016KT 10SM OVC008 11/10 A2960 RMK AO2
Loading
Personal Weather Stations






























Interactive Weather Map New forecast layout! Learn more

10-Day Weather Forecast

Advertisements
Track Severe Weather on mobile